createdAt,value
2022-07-30T00:03:11.620Z,11.70
2022-07-30T00:06:17.813Z,10.50
2022-07-30T00:09:23.311Z,9.10
2022-07-30T00:12:28.963Z,9.90
2022-07-30T00:15:34.841Z,9.80
2022-07-30T00:18:40.393Z,9.20
2022-07-30T00:21:48.827Z,10.00
2022-07-30T00:24:54.303Z,9.60
2022-07-30T00:28:00.074Z,11.80
2022-07-30T00:31:05.573Z,10.90
2022-07-30T00:34:13.045Z,9.80
2022-07-30T00:37:18.512Z,12.00
2022-07-30T00:40:24.240Z,10.50
2022-07-30T00:43:29.729Z,11.60
2022-07-30T00:46:35.216Z,9.00
2022-07-30T00:49:44.254Z,10.20
2022-07-30T00:52:50.023Z,9.10
2022-07-30T00:55:55.508Z,12.00
2022-07-30T00:59:01.109Z,9.60
2022-07-30T01:02:06.773Z,7.90
2022-07-30T01:05:13.479Z,12.20
2022-07-30T01:08:19.144Z,11.20
2022-07-30T01:11:30.086Z,9.30
2022-07-30T01:14:37.374Z,12.40
2022-07-30T01:17:43.631Z,10.50
2022-07-30T01:21:00.922Z,11.80
2022-07-30T01:24:21.904Z,11.40
2022-07-30T01:27:29.995Z,14.70
2022-07-30T01:30:39.852Z,13.10
2022-07-30T01:33:49.190Z,11.60
2022-07-30T01:36:55.942Z,9.90
2022-07-30T01:40:01.900Z,9.50
2022-07-30T01:46:14.959Z,9.70
2022-07-30T01:49:22.863Z,10.20
2022-07-30T01:52:31.320Z,10.30
2022-07-30T01:55:38.236Z,10.30
2022-07-30T01:58:45.193Z,12.00
2022-07-30T02:01:51.210Z,9.40
2022-07-30T02:08:07.540Z,11.30
2022-07-30T02:11:16.405Z,11.20
2022-07-30T02:14:29.752Z,11.50
2022-07-30T02:17:45.234Z,8.80
2022-07-30T02:23:59.275Z,10.70
2022-07-30T02:27:09.742Z,11.10
2022-07-30T02:30:16.382Z,10.40
2022-07-30T02:33:25.769Z,12.30
2022-07-30T02:36:33.827Z,11.30
2022-07-30T02:39:40.785Z,10.60
2022-07-30T02:42:52.638Z,10.00
2022-07-30T02:45:59.221Z,10.30
2022-07-30T02:49:06.737Z,10.70
2022-07-30T02:52:13.909Z,12.30
2022-07-30T02:55:20.980Z,11.30
2022-07-30T02:58:29.013Z,11.80
2022-07-30T03:01:36.944Z,10.50
2022-07-30T03:04:43.757Z,9.60
2022-07-30T03:07:50.429Z,11.10
2022-07-30T03:10:57.166Z,11.90
2022-07-30T03:14:03.084Z,12.50
2022-07-30T03:20:18.547Z,9.80
2022-07-30T03:23:26.769Z,10.80
2022-07-30T03:26:34.768Z,11.20
2022-07-30T03:29:42.809Z,14.80
2022-07-30T03:32:49.292Z,15.10
2022-07-30T03:35:55.425Z,13.60
2022-07-30T03:39:01.279Z,16.40
2022-07-30T03:42:07.730Z,14.00
2022-07-30T03:45:15.199Z,14.20
2022-07-30T03:48:21.248Z,17.10
2022-07-30T03:54:38.948Z,13.90
2022-07-30T03:57:44.922Z,12.10
2022-07-30T04:07:00.857Z,14.50
2022-07-30T04:10:08.396Z,16.10
2022-07-30T04:13:16.062Z,16.30
2022-07-30T04:19:52.176Z,15.00
2022-07-30T04:22:58.732Z,16.80
2022-07-30T04:26:04.460Z,15.30
2022-07-30T04:29:13.344Z,14.40
2022-07-30T04:32:20.603Z,16.70
2022-07-30T04:35:51.641Z,14.50
2022-07-30T04:38:56.566Z,16.60
2022-07-30T04:42:02.045Z,17.30
2022-07-30T04:45:09.655Z,17.10
2022-07-30T04:48:17.359Z,17.50
2022-07-30T04:51:27.603Z,17.20
2022-07-30T04:54:39.576Z,18.10
2022-07-30T04:57:47.242Z,17.40
2022-07-30T05:00:55.614Z,16.80
2022-07-30T05:04:02.583Z,16.60
2022-07-30T05:07:09.076Z,16.60
2022-07-30T05:10:15.567Z,16.20
2022-07-30T05:13:22.304Z,14.40
2022-07-30T05:16:29.745Z,29.70
2022-07-30T05:19:35.429Z,18.50
2022-07-30T05:22:42.889Z,21.80
2022-07-30T05:25:56.667Z,18.80
2022-07-30T05:29:04.118Z,16.80
2022-07-30T05:32:12.821Z,19.60
2022-07-30T05:35:18.534Z,14.50
2022-07-30T05:38:24.752Z,15.70
2022-07-30T05:41:34.454Z,18.40
2022-07-30T05:44:40.005Z,20.40
2022-07-30T05:47:45.600Z,18.50
2022-07-30T05:50:51.061Z,24.00
2022-07-30T05:53:56.521Z,16.20
2022-07-30T05:57:02.307Z,24.50
2022-07-30T06:00:10.886Z,20.60
2022-07-30T06:03:16.504Z,23.80
2022-07-30T06:06:23.337Z,22.70
2022-07-30T06:09:37.158Z,16.70
2022-07-30T06:12:43.543Z,14.10
2022-07-30T06:15:49.124Z,24.50
2022-07-30T06:18:54.715Z,15.70
2022-07-30T06:22:05.436Z,15.50
2022-07-30T06:25:12.997Z,15.60
2022-07-30T06:28:39.826Z,14.40
2022-07-30T06:31:45.431Z,20.30
2022-07-30T06:34:58.682Z,24.10
2022-07-30T06:38:08.265Z,18.00
2022-07-30T06:41:15.818Z,15.30
2022-07-30T06:44:21.302Z,23.10
2022-07-30T06:47:29.315Z,19.90
2022-07-30T06:50:36.991Z,17.90
2022-07-30T06:53:43.000Z,16.90
2022-07-30T06:56:48.624Z,15.40
2022-07-30T07:03:03.037Z,14.40
2022-07-30T07:06:08.789Z,15.40
2022-07-30T07:09:14.413Z,12.90
2022-07-30T07:12:19.992Z,16.90
2022-07-30T07:15:36.233Z,17.30
2022-07-30T07:18:42.708Z,13.80
2022-07-30T07:21:48.962Z,13.90
2022-07-30T07:24:54.418Z,13.00
2022-07-30T07:28:11.680Z,14.90
2022-07-30T07:32:07.117Z,12.70
2022-07-30T07:34:44.483Z,13.60
2022-07-30T07:37:49.935Z,13.50
2022-07-30T07:40:56.099Z,17.20
2022-07-30T07:44:01.664Z,16.30
2022-07-30T07:47:07.728Z,16.10
2022-07-30T07:50:16.253Z,16.20
2022-07-30T07:53:21.694Z,19.70
2022-07-30T07:56:27.161Z,15.00
2022-07-30T07:59:39.848Z,20.70
2022-07-30T08:02:46.726Z,18.90
2022-07-30T08:05:58.016Z,15.10
2022-07-30T08:09:10.363Z,12.50
2022-07-30T08:12:15.986Z,11.20
2022-07-30T08:15:22.181Z,13.30
2022-07-30T08:18:28.018Z,13.60
2022-07-30T08:24:37.614Z,16.10
2022-07-30T08:27:45.153Z,13.40
2022-07-30T08:30:51.024Z,18.10
2022-07-30T08:37:00.521Z,16.10
2022-07-30T08:40:07.896Z,11.70
2022-07-30T08:43:13.615Z,14.10
2022-07-30T08:46:23.198Z,16.30
2022-07-30T08:49:29.022Z,10.70
2022-07-30T08:55:39.617Z,12.00
2022-07-30T08:58:46.787Z,12.40
2022-07-30T09:01:52.656Z,11.30
2022-07-30T09:04:58.182Z,11.90
2022-07-30T09:08:08.839Z,9.70
2022-07-30T09:11:14.631Z,11.00
2022-07-30T09:14:20.052Z,12.90
2022-07-30T09:17:28.850Z,10.10
2022-07-30T09:20:37.979Z,11.40
2022-07-30T09:23:55.806Z,10.70
2022-07-30T09:27:03.129Z,9.40
2022-07-30T09:30:11.273Z,10.50
2022-07-30T09:33:18.477Z,10.40
2022-07-30T09:36:34.295Z,10.90
2022-07-30T09:39:42.754Z,12.70
2022-07-30T09:43:07.695Z,11.50
2022-07-30T09:46:13.804Z,12.50
2022-07-30T09:49:21.079Z,10.70
2022-07-30T09:52:31.453Z,10.40
2022-07-30T09:59:03.947Z,9.00
2022-07-30T10:02:10.846Z,9.80
2022-07-30T10:05:19.311Z,10.80
2022-07-30T10:08:41.874Z,10.80
2022-07-30T10:11:51.611Z,10.00
2022-07-30T10:14:59.334Z,10.50
2022-07-30T10:18:06.794Z,11.60
2022-07-30T10:21:16.960Z,11.70
2022-07-30T10:24:27.621Z,11.70
2022-07-30T10:27:34.973Z,10.90
2022-07-30T10:30:42.132Z,10.20
2022-07-30T10:33:47.632Z,11.00
2022-07-30T10:37:01.755Z,13.00
2022-07-30T10:40:30.673Z,9.90
2022-07-30T10:44:10.003Z,10.50
2022-07-30T10:47:18.848Z,9.90
2022-07-30T10:50:27.198Z,11.20
2022-07-30T10:53:37.976Z,9.70
2022-07-30T10:57:04.181Z,9.10
2022-07-30T11:00:17.950Z,9.00
2022-07-30T11:03:40.177Z,9.50
2022-07-30T11:06:46.827Z,10.10
2022-07-30T11:10:08.656Z,8.60
2022-07-30T11:13:15.317Z,9.00
2022-07-30T11:19:56.707Z,9.00
2022-07-30T11:22:54.221Z,9.80
2022-07-30T11:25:59.873Z,10.50
2022-07-30T11:29:07.221Z,9.60
2022-07-30T11:32:31.993Z,10.00
2022-07-30T11:35:38.302Z,9.30
2022-07-30T11:39:05.200Z,10.00
2022-07-30T11:42:28.719Z,9.20
2022-07-30T11:45:34.401Z,8.00
2022-07-30T11:48:41.845Z,9.00
2022-07-30T11:51:48.937Z,9.30
2022-07-30T11:54:56.267Z,11.60
2022-07-30T11:58:03.572Z,8.70
2022-07-30T12:01:13.699Z,8.50
2022-07-30T12:04:19.368Z,9.30
2022-07-30T12:07:26.398Z,8.70
2022-07-30T12:10:32.025Z,9.00
2022-07-30T12:13:45.477Z,8.10
2022-07-30T12:16:55.824Z,8.20
2022-07-30T12:20:01.253Z,8.50
2022-07-30T12:23:13.160Z,9.20
2022-07-30T12:26:26.888Z,8.50
2022-07-30T12:29:33.287Z,8.80
2022-07-30T12:32:39.106Z,8.90
2022-07-30T12:35:50.223Z,8.90
2022-07-30T12:38:57.940Z,9.80
2022-07-30T12:42:03.600Z,8.80
2022-07-30T12:45:28.544Z,9.30
2022-07-30T12:51:52.297Z,9.30
2022-07-30T12:55:09.005Z,8.60
2022-07-30T12:58:14.594Z,9.50
2022-07-30T13:04:24.747Z,10.40
2022-07-30T13:10:38.233Z,10.00
2022-07-30T13:13:43.760Z,9.70
2022-07-30T13:19:54.055Z,12.60
2022-07-30T13:23:01.999Z,10.80
2022-07-30T13:26:09.341Z,9.50
2022-07-30T13:29:15.139Z,9.50
2022-07-30T13:32:21.257Z,9.90
2022-07-30T13:35:26.721Z,9.20
2022-07-30T13:41:36.868Z,8.70
2022-07-30T13:44:42.308Z,9.50
2022-07-30T13:47:48.543Z,11.50
2022-07-30T13:50:54.033Z,11.40
2022-07-30T13:57:04.424Z,9.60
2022-07-30T14:00:12.839Z,10.00
2022-07-30T14:03:18.372Z,10.80
2022-07-30T14:06:24.402Z,11.70
2022-07-30T14:09:29.877Z,9.90
2022-07-30T14:15:39.646Z,11.20
2022-07-30T14:18:46.429Z,12.10
2022-07-30T14:24:56.024Z,12.00
2022-07-30T14:31:06.398Z,9.30
2022-07-30T14:34:13.167Z,9.90
2022-07-30T14:37:18.837Z,9.60
2022-07-30T14:43:28.427Z,13.10
2022-07-30T14:46:33.976Z,10.90
2022-07-30T14:49:39.532Z,11.80
2022-07-30T14:52:47.263Z,11.30
2022-07-30T14:55:52.814Z,12.90
2022-07-30T14:58:58.968Z,11.60
2022-07-30T15:02:05.296Z,10.30
2022-07-30T15:05:16.216Z,11.00
2022-07-30T15:08:21.980Z,11.40
2022-07-30T15:14:31.755Z,12.90
2022-07-30T15:20:43.144Z,13.10
2022-07-30T15:23:48.544Z,11.20
2022-07-30T15:26:54.948Z,10.20
2022-07-30T15:30:00.982Z,12.20
2022-07-30T15:33:06.554Z,10.50
2022-07-30T15:36:14.552Z,11.80
2022-07-30T15:39:20.004Z,12.00
2022-07-30T15:42:27.355Z,11.10
2022-07-30T15:45:50.119Z,10.70
2022-07-30T15:48:58.465Z,13.20
2022-07-30T15:52:07.289Z,11.10
2022-07-30T15:55:14.099Z,10.90
2022-07-30T15:58:19.863Z,10.70
2022-07-30T16:01:25.339Z,11.00
2022-07-30T16:04:33.080Z,11.20
2022-07-30T16:07:38.776Z,12.00
2022-07-30T16:13:49.525Z,11.00
2022-07-30T16:16:54.963Z,11.90
2022-07-30T16:20:00.529Z,11.50
2022-07-30T16:23:11.783Z,11.60
2022-07-30T16:26:19.059Z,10.70
2022-07-30T16:32:28.854Z,14.70
2022-07-30T16:35:34.532Z,13.90
2022-07-30T16:38:54.984Z,15.30
2022-07-30T16:42:01.037Z,13.40
2022-07-30T16:45:07.917Z,14.80
2022-07-30T16:48:14.272Z,16.10
2022-07-30T16:51:20.131Z,14.50
2022-07-30T16:54:25.775Z,13.20
2022-07-30T16:57:31.277Z,12.90
2022-07-30T17:00:36.836Z,13.50
2022-07-30T17:03:42.356Z,14.30
2022-07-30T17:06:47.852Z,13.00
2022-07-30T17:09:54.235Z,13.20
2022-07-30T17:12:59.860Z,13.20
2022-07-30T17:16:07.752Z,11.90
2022-07-30T17:19:13.395Z,11.50
2022-07-30T17:22:18.984Z,15.80
2022-07-30T17:25:27.493Z,11.70
2022-07-30T17:28:33.161Z,15.40
2022-07-30T17:31:40.017Z,15.00
2022-07-30T17:34:45.668Z,12.60
2022-07-30T17:37:51.420Z,13.60
2022-07-30T17:40:56.970Z,12.00
2022-07-30T17:44:02.520Z,13.60
2022-07-30T17:47:13.769Z,13.00
2022-07-30T17:50:20.197Z,11.90
2022-07-30T17:53:25.698Z,15.60
2022-07-30T17:56:31.176Z,13.20
2022-07-30T17:59:36.628Z,14.80
2022-07-30T18:02:42.251Z,13.30
2022-07-30T18:05:48.039Z,13.10
2022-07-30T18:11:57.884Z,13.60
2022-07-30T18:15:07.413Z,13.00
2022-07-30T18:18:12.844Z,14.90
2022-07-30T18:21:18.399Z,14.10
2022-07-30T18:24:24.879Z,11.30
2022-07-30T18:27:31.125Z,10.30
2022-07-30T18:30:36.577Z,11.30
2022-07-30T18:33:42.078Z,11.50
2022-07-30T18:36:51.127Z,10.80
2022-07-30T18:39:56.821Z,11.50
2022-07-30T18:43:02.773Z,9.60
2022-07-30T18:46:08.799Z,9.60
2022-07-30T18:49:35.714Z,8.00
2022-07-30T18:55:45.844Z,8.10
2022-07-30T18:58:51.281Z,7.10
2022-07-30T19:01:56.936Z,10.20
2022-07-30T19:05:02.585Z,8.50
2022-07-30T19:08:08.652Z,8.30
2022-07-30T19:11:14.181Z,7.40
2022-07-30T19:14:20.272Z,9.00
2022-07-30T19:17:46.681Z,7.20
2022-07-30T19:20:51.942Z,8.10
2022-07-30T19:23:57.388Z,8.60
2022-07-30T19:27:03.072Z,7.10
2022-07-30T19:30:10.269Z,8.20
2022-07-30T19:33:16.567Z,6.70
2022-07-30T19:36:22.104Z,8.70
2022-07-30T19:39:28.621Z,8.50
2022-07-30T19:42:34.291Z,9.00
2022-07-30T19:45:47.091Z,9.40
2022-07-30T19:48:53.732Z,8.50
2022-07-30T19:52:22.506Z,12.10
2022-07-30T19:55:35.854Z,9.60
2022-07-30T19:58:41.984Z,9.80
2022-07-30T20:04:57.508Z,9.30
2022-07-30T20:08:04.396Z,9.00
2022-07-30T20:11:10.903Z,10.70
2022-07-30T20:14:22.969Z,8.90
2022-07-30T20:17:28.528Z,11.50
2022-07-30T20:20:33.987Z,8.90
2022-07-30T20:23:39.720Z,9.40
2022-07-30T20:26:46.891Z,11.20
2022-07-30T20:29:52.332Z,9.60
2022-07-30T20:36:03.813Z,10.70
2022-07-30T20:39:09.521Z,9.40
2022-07-30T20:42:19.159Z,9.60
2022-07-30T20:45:37.891Z,8.10
2022-07-30T20:48:46.425Z,10.20
2022-07-30T20:51:52.855Z,9.30
2022-07-30T20:54:59.326Z,10.40
2022-07-30T20:58:16.270Z,11.70
2022-07-30T21:01:22.466Z,11.30
2022-07-30T21:04:28.252Z,12.60
2022-07-30T21:07:36.734Z,13.70
2022-07-30T21:10:44.422Z,11.40
2022-07-30T21:13:50.495Z,10.40
2022-07-30T21:16:57.373Z,11.00
2022-07-30T21:23:11.509Z,14.00
2022-07-30T21:26:17.346Z,11.10
2022-07-30T21:29:29.090Z,11.70
2022-07-30T21:32:34.576Z,12.50
2022-07-30T21:35:40.119Z,11.60
2022-07-30T21:38:47.366Z,10.70
2022-07-30T21:41:52.818Z,9.60
2022-07-30T21:45:01.488Z,11.90
2022-07-30T21:48:10.876Z,12.60
2022-07-30T21:51:16.780Z,9.50
2022-07-30T21:54:28.831Z,11.90
2022-07-30T21:57:36.611Z,10.00
2022-07-30T22:01:17.491Z,9.20
2022-07-30T22:04:27.600Z,9.20
2022-07-30T22:07:33.233Z,9.20
2022-07-30T22:10:42.876Z,8.50
2022-07-30T22:13:53.989Z,9.80
2022-07-30T22:17:00.522Z,10.10
2022-07-30T22:20:12.542Z,9.50
2022-07-30T22:23:18.120Z,8.50
2022-07-30T22:26:23.780Z,10.40
2022-07-30T22:29:34.024Z,9.40
2022-07-30T22:32:41.301Z,10.00
2022-07-30T22:35:49.625Z,14.20
2022-07-30T22:38:58.415Z,12.40
2022-07-30T22:42:05.520Z,11.90
2022-07-30T22:45:44.880Z,10.00
2022-07-30T22:48:44.574Z,10.70
2022-07-30T22:52:05.079Z,13.20
2022-07-30T22:55:16.252Z,13.50
2022-07-30T22:58:28.827Z,13.10
2022-07-30T23:01:35.993Z,12.10
2022-07-30T23:04:46.861Z,13.60
2022-07-30T23:07:54.645Z,13.60
2022-07-30T23:11:01.208Z,13.90
2022-07-30T23:14:07.721Z,13.00
2022-07-30T23:17:13.977Z,15.80
2022-07-30T23:20:21.431Z,18.40
2022-07-30T23:23:26.884Z,18.00
2022-07-30T23:26:36.649Z,16.00
2022-07-30T23:29:42.060Z,15.80
2022-07-30T23:32:47.499Z,18.60
2022-07-30T23:35:54.118Z,20.00
2022-07-30T23:38:59.857Z,20.10
2022-07-30T23:42:05.537Z,21.60
2022-07-30T23:45:12.364Z,20.30
2022-07-30T23:48:17.917Z,19.00
2022-07-30T23:51:23.769Z,21.80
2022-07-30T23:57:34.496Z,22.00
